Weather observations for the past three days for
Okeechobee County Airport
Metric (Imperial)
Date Time (edt) Wind (kph) Vis. (km) Weather Sky Cond. Temperature (ºC) Relative Humidity Wind Chill (°C) Heat Index (°C) Pressure Precipitation (cm)
Air Dwpt 6 hour altimeter (cm) sea level (mb) 1 hr 3 hr 6 hr
Max. Min.
03 20:15 Calm 16.09 Partly Cloudy SCT029 SCT048 SCT055 25 25 100% 25 76.07 0.0
03 19:55 Calm 16.09 Fair CLR 26 24 89% 28 76.07 0.0
03 19:35 Calm 16.09 Partly Cloudy FEW010 SCT013 SCT050 26 24 89% 28 76.05 0.0
03 19:15 SE 7 16.09 Mostly Cloudy BKN010 BKN013 BKN050 26 25 94% 28 76.05 0.0
03 18:55 Calm 16.09 Fair CLR 27 25 89% 31 76.05 0.0
03 18:35 NE 7 16.09 Fair CLR 27 25 89% 31 76 0.0
03 18:15 Calm 16.09 A Few Clouds FEW055 27 25 89% 31 76.02 0.0
03 17:55 Calm 16.09 Thunderstorm in Vicinity FEW065 27 25 89% 31 76 0.0
03 17:35 Calm 16.09 Thunderstorm in Vicinity Rain FEW110 27 25 89% 31 75.97 0.0
03 17:15 Vrbl 11 16.09 Thunderstorm in Vicinity FEW110 28 25 84% 33 76 0.0
03 16:55 S 9 16.09 Thunderstorm in Vicinity CLR 28 25 84% 33 75.97 0.0
03 16:35 SW 13 16.09 Thunderstorm in Vicinity CLR 28 25 84% 33 75.92 0.0
03 16:15 SW 13 16.09 Thunderstorm in Vicinity CLR 30 25 75% 36 75.95 0.0
03 15:55 SW 15 G 30 16.09 Thunderstorm in Vicinity CLR 30 25 75% 36 75.97 0.0
03 15:35 SW 24 16.09 Thunderstorm in Vicinity CLR 33 26 67% 42 75.95 0.0
03 15:15 S 11 G 24 16.09 Thunderstorm in Vicinity CLR 34 24 56% 41 75.97 0.0
03 14:55 Vrbl 9 16.09 Thunderstorm in Vicinity CLR 34 24 56% 41 76 0.0
03 14:35 Vrbl 9 16.09 Thunderstorm in Vicinity CLR 33 25 63% 41 76 0.0
03 14:15 S 13 16.09 Fair CLR 33 25 63% 41 75.97 0.0
03 13:55 S 7 G 19 16.09 Fair CLR 33 25 63% 41 76 0.0
03 13:35 S 13 16.09 Fair CLR 33 25 63% 41 76.02 0.0
03 13:15 S 15 16.09 Fair CLR 33 25 63% 41 76.05 0.0
03 12:55 Vrbl 9 G 20 16.09 Fair CLR 33 25 63% 41 76.07 0.0
03 12:35 Vrbl 9 G 22 16.09 A Few Clouds FEW028 32 25 67% 39 76.1 0.0
03 12:15 Vrbl 9 16.09 A Few Clouds FEW026 32 26 71% 41 76.1 0.0
03 11:55 Vrbl 11 16.09 A Few Clouds FEW027 32 25 67% 39 76.12 0.0
03 11:35 Vrbl 9 G 20 16.09 Fair CLR 31 26 75% 39 76.12 0.0
03 11:15 Vrbl 9 G 24 16.09 Fair CLR 31 26 75% 39 76.12 0.0
03 10:55 Vrbl 9 16.09 Fair CLR 31 27 79% 41 76.12 0.0
03 10:35 Vrbl 7 16.09 Fair CLR 30 26 79% 37 76.12 0.0
03 10:15 S 13 16.09 Fair CLR 30 27 84% 39 76.1 0.0
03 09:55 Vrbl 7 16.09 Fair CLR 30 27 84% 39 76.1 0.0
03 09:35 Calm 16.09 Fair CLR 29 27 89% 37 76.1 0.0
03 09:15 Calm 16.09 Fair CLR 27 26 94% 31 76.1 0.0
03 08:55 Calm 16.09 Fair CLR 26 26 100% 28 76.07 0.0
03 08:35 Calm 16.09 A Few Clouds FEW008 25 25 100% 25 76.1 0.0
03 08:15 Calm 16.09 Partly Cloudy SCT008 25 25 100% 25 76.1 0.0
03 07:55 Calm 16.09 Mostly Cloudy BKN009 24 24 100% 23 76.1 0.0
03 07:35 Calm 14.48 Partly Cloudy SCT009 24 24 100% 23 76.07 0.0
03 07:15 Calm 12.87 Partly Cloudy SCT010 24 24 100% 23 76.02 0.0
03 06:55 Calm 12.87 Fair CLR 24 24 100% 23 76.02 0.0
03 06:35 Calm 16.09 Partly Cloudy SCT008 SCT012 24 24 100% 23 76 0.0
03 06:15 Calm 16.09 Mostly Cloudy FEW003 BKN008 BKN015 24 24 100% 23 75.97 0.0
03 05:55 Calm 16.09 Partly Cloudy FEW004 SCT009 SCT016 24 24 100% 23 75.97 0.0
03 05:35 Calm 16.09 Partly Cloudy SCT009 24 24 100% 23 75.97 0.0
03 05:15 Calm 14.48 Partly Cloudy SCT009 SCT075 25 25 100% 25 75.97 0.0
03 04:55 Calm 16.09 Mostly Cloudy BKN075 25 25 100% 25 75.95 0.0
03 04:35 Calm 16.09 Overcast OVC070 25 25 100% 25 75.97 0.0
03 04:15 Calm 16.09 Mostly Cloudy BKN070 25 25 100% 25 75.97 0.0
03 03:55 Calm 16.09 A Few Clouds FEW065 25 25 100% 25 75.97 0.0
03 03:35 NE 6 16.09 Fair CLR 25 25 100% 25 75.97 0.0
03 03:15 Calm 16.09 Fair CLR 25 25 100% 25 75.97 0.0
03 02:55 Vrbl 7 16.09 A Few Clouds FEW008 26 26 100% 28 76 0.0
03 02:35 Calm 14.48 A Few Clouds FEW011 26 26 100% 28 75.97 0.0
03 02:15 Calm 14.48 Mostly Cloudy BKN012 26 26 100% 28 75.97 0.0
03 01:55 Calm 16.09 Overcast OVC013 26 26 100% 28 76 0.0
03 01:35 Calm 16.09 Overcast OVC015 26 26 100% 28 76 0.0
03 01:15 Calm 16.09 Overcast OVC015 26 26 100% 28 76.02 0.0
03 00:55 Calm 16.09 Mostly Cloudy BKN016 BKN023 26 26 100% 28 76.05 0.0
03 00:35 Calm 16.09 Mostly Cloudy BKN016 BKN022 BKN028 26 25 94% 28 76.07 0.0
03 00:15 S 9 16.09 Overcast SCT015 BKN019 OVC060 26 26 100% 28 76.1 0.0
02 23:55 Calm 16.09 Mostly Cloudy FEW020 SCT049 BKN060 26 26 100% 28 76.12 0.0
02 23:35 Calm 16.09 Mostly Cloudy FEW042 SCT049 BKN055 26 26 100% 28 76.12 0.0
02 23:15 Calm 16.09 Mostly Cloudy SCT042 BKN055 26 26 100% 28 76.15 0.0
02 22:55 Calm 16.09 Partly Cloudy SCT060 26 25 94% 28 76.12 0.0
02 22:35 Calm 16.09 Fair CLR 26 25 94% 28 76.1 0.0
02 22:15 Calm 16.09 Fair CLR 26 25 94% 28 76.1 0.0
02 21:55 Calm 16.09 A Few Clouds FEW038 FEW050 26 25 94% 28 76.1 0.0
02 21:35 Calm 16.09 A Few Clouds FEW038 FEW100 27 25 89% 31 76.07 0.0
02 21:15 Calm 16.09 A Few Clouds FEW045 FEW100 27 25 89% 31 76.07 0.0
02 20:55 Vrbl 7 16.09 Mostly Cloudy BKN034 BKN045 27 25 89% 31 76.05 0.0
02 20:35 Vrbl 6 16.09 Partly Cloudy SCT033 27 25 89% 31 76.02 0.0
02 20:15 Vrbl 7 16.09 Fair CLR 28 25 84% 33 76.02 0.0
02 19:55 E 9 16.09 Fair CLR 28 25 84% 33 76 0.0
02 19:35 Vrbl 9 16.09 Fair CLR 28 25 84% 33 76 0.0
02 19:15 Vrbl 6 16.09 Fair CLR 29 26 84% 36 75.97 0.0
02 18:55 Vrbl 7 G 20 16.09 A Few Clouds FEW035 29 26 84% 36 75.97 0.0
02 18:35 Vrbl 11 16.09 A Few Clouds FEW035 31 25 70% 38 75.95 0.0
02 18:15 E 7 16.09 Fair CLR 31 25 70% 38 75.95 0.0
02 17:55 Vrbl 6 16.09 Fair CLR 32 25 67% 39 75.95 0.0
02 17:35 Vrbl 7 G 19 16.09 A Few Clouds FEW034 32 25 67% 39 75.97 0.0
02 17:15 Vrbl 11 16.09 Fair CLR 32 25 67% 39 75.97 0.0
02 16:55 E 11 16.09 Fair CLR 32 25 67% 39 75.97 0.0
02 16:35 Vrbl 7 16.09 Fair CLR 33 25 63% 41 75.97 0.0
02 16:15 Vrbl 11 16.09 A Few Clouds FEW032 33 26 67% 42 75.97 0.0
02 15:55 Vrbl 9 G 20 16.09 A Few Clouds FEW033 32 26 71% 41 75.97 0.0
02 15:35 Vrbl 9 16.09 Fair CLR 33 26 67% 42 76 0.0
02 15:15 SE 9 G 20 16.09 A Few Clouds FEW038 FEW075 32 26 71% 41 76.02 0.0
02 14:55 Vrbl 7 G 19 16.09 Mostly Cloudy SCT037 BKN045 BKN065 31 26 75% 39 76.05 0.0
02 14:35 Vrbl 7 16.09 Mostly Cloudy BKN036 BKN044 BKN060 32 24 63% 38 76.05 0.0
02 14:15 N 7 16.09 Mostly Cloudy BKN035 33 25 63% 41 76.05 0.0
02 13:55 Calm 16.09 Fair CLR 33 24 59% 39 76.07 0.0
02 13:35 Calm 14.48 Fair CLR 32 24 63% 38 76.1 0.0
02 13:15 Calm 16.09 Partly Cloudy SCT031 32 24 63% 38 76.12 0.0
02 12:55 Calm 16.09 Partly Cloudy SCT031 32 24 63% 38 76.15 0.0
02 12:35 Calm 16.09 Partly Cloudy FEW027 SCT033 31 25 70% 38 76.15 0.0
02 12:15 NW 7 16.09 Partly Cloudy SCT027 31 25 70% 38 76.17 0.0
02 11:55 N 7 16.09 Partly Cloudy FEW024 SCT031 31 25 70% 38 76.2 0.0
02 11:35 Calm 16.09 A Few Clouds FEW031 30 25 75% 36 76.2 0.0
02 11:15 Vrbl 6 16.09 A Few Clouds FEW020 30 25 75% 36 76.2 0.0
02 10:55 NW 7 16.09 Thunderstorm in Vicinity CLR 29 25 79% 35 76.2 0.0
02 10:35 Calm 16.09 A Few Clouds FEW015 28 26 89% 34 76.2 0.0
02 09:55 N 9 16.09 A Few Clouds FEW014 28 26 89% 34 76.17 0.0
02 09:35 Vrbl 6 16.09 Fair CLR 28 27 94% 35 76.17 0.0
02 09:15 N 7 16.09 Fair CLR 26 26 100% 28 76.17 0.0
02 08:55 Calm 16.09 Fair CLR 25 25 100% 25 76.17 0.0
02 08:35 NE 7 16.09 Fair CLR 25 25 100% 25 76.17 0.0
02 08:15 NE 6 16.09 Fair CLR 24 24 100% 23 76.17 0.0
02 07:55 Calm 16.09 Fair CLR 24 24 100% 23 76.15 0.0
02 07:35 Calm 16.09 Fair CLR 24 24 100% 23 76.15 0.0
02 07:15 Calm 16.09 Fair CLR 23 23 100% 76.12 0.0
02 06:55 Calm 14.48 Fair CLR 23 23 100% 76.12 0.0
02 06:35 Calm 14.48 Fair CLR 23 23 100% 76.1 0.0
02 06:15 Calm 9.66 Fog/Mist CLR 24 24 100% 23 76.1 0.0
02 05:55 Calm 12.87 Fair CLR 23 23 100% 76.1 0.0
02 05:35 Calm 11.27 A Few Clouds FEW002 23 23 100% 76.1 0.0
02 05:15 Calm 16.09 Partly Cloudy SCT002 23 23 100% 76.1 0.0
02 04:55 Calm 14.48 Fair CLR 24 24 100% 23 76.07 0.0
02 04:35 Calm 16.09 Fair CLR 24 24 100% 23 76.07 0.0
02 04:15 Calm 16.09 Fair CLR 24 24 100% 23 76.07 0.0
02 03:55 N 6 16.09 Fair CLR 24 24 100% 23 76.05 0.0
02 03:35 Calm 16.09 Fair CLR 24 24 100% 23 76.07 0.0
02 03:15 N 7 16.09 Fair CLR 24 24 100% 23 76.07 0.0
02 02:55 Calm 16.09 Fair CLR 24 24 100% 23 76.07 0.0
02 02:35 Calm 12.87 Fair CLR 24 24 100% 23 76.1 0.0
02 02:15 Calm 14.48 Fair CLR 24 24 100% 23 76.12 0.0
02 01:55 Calm 16.09 Fair CLR 24 24 100% 23 76.12 0.0
02 01:35 NW 7 16.09 Fair CLR 24 24 100% 23 76.12 0.0
02 01:15 N 7 11.27 Fair CLR 24 24 100% 23 76.12 0.0
02 00:55 Calm 11.27 Fair CLR 24 24 100% 23 76.12 0.0
02 00:35 Calm 8.05 Fog/Mist CLR 24 24 100% 23 76.15 0.0
02 00:15 Calm 14.48 Fair CLR 24 24 100% 23 76.15 0.0
01 23:55 Calm 16.09 Fair CLR 24 24 100% 23 76.15 0.0
01 23:35 Calm 16.09 Fair CLR 24 24 100% 23 76.17 0.0
01 23:15 Calm 16.09 Fair CLR 24 24 100% 23 76.17 0.0
01 22:55 Calm 16.09 Fair CLR 24 24 100% 23 76.2 0.0
01 22:35 Calm 16.09 Fair CLR 24 24 100% 23 76.2 0.0
01 22:15 Calm 16.09 Mostly Cloudy BKN015 25 25 100% 25 76.2 0.0
01 21:55 Calm 16.09 Partly Cloudy SCT015 SCT019 25 25 100% 25 76.17 0.0
01 21:35 Calm 16.09 Partly Cloudy SCT018 25 25 100% 25 76.15 0.0
01 21:15 Calm 16.09 Fair CLR 25 25 100% 25 76.15 0.0
01 20:55 Calm 16.09 A Few Clouds FEW016 FEW025 FEW034 25 25 100% 25 76.15 0.0
01 20:35 Calm 16.09 Mostly Cloudy FEW015 BKN024 BKN036 25 25 100% 25 76.15 0.0
01 20:15 NW 6 12.87 Light Rain SCT019 BKN034 OVC065 26 26 100% 28 76.15 0.0
01 19:55 Calm 16.09 Mostly Cloudy BKN021 BKN031 BKN038 26 26 100% 28 76.12 0.0
01 19:35 NW 6 16.09 Partly Cloudy SCT022 SCT032 26 26 100% 28 76.15 0.0
01 19:15 Calm 16.09 A Few Clouds FEW022 26 26 100% 28 76.15 0.0
01 18:55 Calm 16.09 Fair CLR 26 26 100% 28 76.15 0.0
01 18:35 N 13 16.09 Fair CLR 26 26 100% 28 76.12 0.0
01 18:15 N 11 16.09 Fair CLR 27 27 100% 32 76.12 0.0
01 17:55 Calm 16.09 Fair CLR 27 26 94% 31 76.1 0.0
01 17:35 Calm 16.09 Fair CLR 27 26 94% 31 76.1 0.0
01 17:15 Calm 16.09 Fair CLR 27 26 94% 31 76.07 0.0
01 16:55 NE 6 16.09 Fair CLR 26 26 100% 28 76.07 0.0
01 16:35 NW 6 16.09 Thunderstorm in Vicinity CLR 26 26 100% 28 76.1 0.0
01 16:15 Calm 16.09 Thunderstorm in Vicinity CLR 25 25 100% 25 76.1 0.0
01 15:55 Calm 16.09 Thunderstorm in Vicinity Rain CLR 25 25 100% 25 76.1 0.0
01 15:35 W 7 16.09 Thunderstorm Light Rain FEW095 25 25 100% 25 76.12 0.0
01 15:15 W 11 14.48 Thunderstorm Light Rain CLR 25 25 100% 25 76.15 0.0
01 14:55 SW 11 6.44 Thunderstorm Light Rain Fog/Mist BKN037 BKN048 BKN060 25 25 100% 25 76.15 0.0
01 14:35 S 13 G 26 6.44 Thunderstorm in Vicinity Rain Fog/Mist FEW005 SCT023 BKN042 25 25 100% 25 76.17 0.0
01 14:15 SE 11 G 24 2.01 Thunderstorm in Vicinity Rain Fog/Mist SCT005 SCT023 OVC035 26 26 100% 28 76.17 0.0
01 13:55 Vrbl 7 16.09 Thunderstorm in Vicinity Rain SCT034 SCT041 BKN075 29 25 79% 35 76.17 0.0
01 13:35 Vrbl 7 16.09 Thunderstorm in Vicinity FEW035 FEW048 SCT070 30 25 75% 36 76.15 0.0
01 13:15 NE 9 16.09 Mostly Cloudy FEW038 SCT060 BKN085 31 25 70% 38 76.17 0.0
01 12:55 N 6 16.09 Mostly Cloudy FEW050 SCT075 BKN085 30 25 75% 36 76.2 0.0
01 12:35 N 9 16.09 Mostly Cloudy FEW035 SCT050 BKN085 30 26 79% 37 76.2 0.0
01 12:15 Calm 4.83 Light Rain Haze FEW030 FEW044 SCT070 29 26 84% 36 76.2 0.0
01 11:55 NE 13 16.09 Mostly Cloudy FEW028 SCT044 BKN065 32 25 67% 39 76.23 0.0
01 11:35 N 6 16.09 Fair CLR 31 25 70% 38 76.23 0.0
01 11:15 N 6 14.48 Partly Cloudy FEW026 FEW040 SCT055 30 25 75% 36 76.25 0.0
01 10:55 N 13 16.09 Mostly Cloudy BKN024 BKN036 BKN041 31 26 75% 39 76.23 0.0
01 10:35 Vrbl 7 12.87 Mostly Cloudy SCT021 BKN028 BKN038 30 26 79% 37 76.23 0.0
01 10:15 NE 9 16.09 Partly Cloudy FEW018 SCT025 30 26 79% 37 76.23 0.0
01 09:55 Calm 16.09 Fair CLR 29 26 84% 36 76.2 0.0
01 09:35 NE 7 16.09 Fair CLR 29 26 84% 36 76.2 0.0
01 09:15 Calm 16.09 Fair CLR 28 26 89% 34 76.2 0.0
01 08:55 Calm 16.09 Fair CLR 26 26 100% 28 76.2 0.0
01 08:35 Calm 16.09 Fair CLR 25 25 100% 25 76.2 0.0
01 08:15 NE 9 16.09 Fair CLR 25 25 100% 25 76.2 0.0
01 07:55 Calm 16.09 Fair CLR 24 24 100% 23 76.17 0.0
01 07:35 Calm 16.09 Fair CLR 23 23 100% 76.15 0.0
01 07:15 Calm 14.48 Fair CLR 23 23 100% 76.15 0.0
01 06:55 Calm 16.09 Fair CLR 24 24 100% 23 76.12 0.0
01 06:35 Calm 12.87 Fair CLR 24 24 100% 23 76.12 0.0
01 06:15 Calm 16.09 A Few Clouds FEW001 24 24 100% 23 76.12 0.0
01 05:55 N 6 16.09 A Few Clouds FEW002 24 24 100% 23 76.12 0.0
01 05:35 Calm 12.87 A Few Clouds FEW002 24 24 100% 23 76.12 0.0
01 05:15 Calm 14.48 Mostly Cloudy BKN002 24 24 100% 23 76.1 0.0
01 04:55 Calm 11.27 Mostly Cloudy BKN002 24 24 100% 23 76.1 0.0
01 04:35 Calm 4.83 Fog/Mist OVC002 24 24 100% 23 76.1 0.0
01 04:15 Calm 16.09 Mostly Cloudy BKN002 24 24 100% 23 76.1 0.0
01 03:55 Calm 16.09 Partly Cloudy SCT002 SCT020 24 24 100% 23 76.12 0.0
01 03:35 N 9 16.09 A Few Clouds FEW020 24 24 100% 23 76.12 0.0
01 03:15 NE 7 16.09 Fair CLR 24 24 100% 23 76.12 0.0
01 02:55 NE 6 16.09 A Few Clouds FEW002 24 24 100% 23 76.15 0.0
01 02:35 Calm 16.09 Mostly Cloudy BKN002 24 24 100% 23 76.15 0.0
01 02:15 Calm 16.09 Partly Cloudy SCT002 SCT021 24 24 100% 23 76.15 0.0
01 01:35 N 7 16.09 A Few Clouds FEW002 24 24 100% 23 76.2 0.0
01 01:15 Calm 16.09 Fair CLR 24 24 100% 23 76.2 0.0
01 00:55 NW 7 16.09 Fair CLR 25 25 100% 25 76.23 0.0
01 00:35 Calm 16.09 Fair CLR 24 24 100% 23 76.25 0.0
01 00:15 Calm 14.48 Fair CLR 25 25 100% 25 76.25 0.0
31 23:55 Calm 16.09 Fair CLR 24 24 100% 23 76.25 0.0
31 23:35 Calm 16.09 Fair CLR 25 25 100% 25 76.25 0.0
31 23:15 Calm 16.09 Fair CLR 24 24 100% 23 76.25 0.0
31 22:55 Calm 16.09 Fair CLR 25 25 100% 25 76.25 0.0
31 22:35 Calm 16.09 Fair CLR 25 25 100% 25 76.25 0.0
31 22:15 Calm 16.09 Fair CLR 25 25 100% 25 76.25 0.0
31 21:55 Calm 16.09 Fair CLR 25 25 100% 25 76.23 0.0
31 21:35 Calm 16.09 Fair CLR 25 25 100% 25 76.2 0.0
31 21:15 Calm 16.09 Fair CLR 25 25 100% 25 76.2 0.0
31 20:55 Calm 16.09 Fair CLR 26 26 100% 28 76.2 0.0
31 20:35 N 7 16.09 Fair CLR 26 26 100% 28 76.2 0.0
Date Time (edt) Wind (kph) Vis. (km) Weather Sky Cond. Air Dwpt Max. Min. Relative Humidity Wind Chill (°C) Heat Index (°C) altimeter (cm) sea level (mb) 1 hr 3 hr 6 hr
6 hour
Temperature (ºC) Pressure Precipitation (cm)